createdAt,value
2017-12-26T00:00:40.641Z,1005.19
2017-12-26T00:01:39.650Z,1005.15
2017-12-26T00:02:40.178Z,1005.18
2017-12-26T00:03:40.268Z,1005.12
2017-12-26T00:04:39.696Z,1005.11
2017-12-26T00:05:40.062Z,1005.14
2017-12-26T00:06:41.350Z,1005.10
2017-12-26T00:07:40.166Z,1005.10
2017-12-26T00:08:39.770Z,1005.11
2017-12-26T00:09:40.765Z,1005.10
2017-12-26T00:10:40.565Z,1005.09
2017-12-26T00:11:39.209Z,1004.98
2017-12-26T00:12:40.778Z,1005.05
2017-12-26T00:13:40.939Z,1005.06
2017-12-26T00:14:40.212Z,1005.03
2017-12-26T00:15:40.390Z,1004.98
2017-12-26T00:16:39.027Z,1005.04
2017-12-26T00:17:40.155Z,1004.92
2017-12-26T00:18:40.881Z,1004.96
2017-12-26T00:19:39.803Z,1004.99
2017-12-26T00:20:39.577Z,1004.89
2017-12-26T00:21:39.933Z,1004.94
2017-12-26T00:22:39.569Z,1004.95
2017-12-26T00:23:39.900Z,1004.93
2017-12-26T00:24:40.787Z,1004.86
2017-12-26T00:25:40.055Z,1004.88
2017-12-26T00:26:40.494Z,1004.82
2017-12-26T00:27:40.162Z,1004.88
2017-12-26T00:28:39.561Z,1004.82
2017-12-26T00:29:39.863Z,1004.81
2017-12-26T00:30:39.885Z,1004.70
2017-12-26T00:31:39.839Z,1004.65
2017-12-26T00:32:39.404Z,1004.69
2017-12-26T00:33:39.757Z,1004.63
2017-12-26T00:34:39.690Z,1004.72
2017-12-26T00:35:40.427Z,1004.71
2017-12-26T00:36:39.712Z,1004.65
2017-12-26T00:37:39.197Z,1004.61
2017-12-26T00:38:39.768Z,1004.54
2017-12-26T00:39:40.753Z,1004.49
2017-12-26T00:40:40.277Z,1004.47
2017-12-26T00:41:40.527Z,1004.48
2017-12-26T00:42:39.439Z,1004.46
2017-12-26T00:43:39.223Z,1004.19
2017-12-26T00:44:39.880Z,1004.42
2017-12-26T00:45:40.038Z,1004.39
2017-12-26T00:46:43.562Z,1004.34
2017-12-26T00:48:23.451Z,1004.32
2017-12-26T00:49:23.199Z,1004.21
2017-12-26T00:50:23.071Z,1004.23
2017-12-26T00:51:24.288Z,1004.21
2017-12-26T00:52:23.591Z,1004.18
2017-12-26T00:53:24.005Z,1004.13
2017-12-26T00:54:24.060Z,1004.20
2017-12-26T00:55:23.981Z,1004.18
2017-12-26T00:56:24.215Z,1004.09
2017-12-26T00:57:24.523Z,1004.12
2017-12-26T00:58:24.003Z,1004.05
2017-12-26T00:59:23.983Z,1004.12
2017-12-26T01:00:23.120Z,1004.07
2017-12-26T01:01:23.755Z,1003.98
2017-12-26T01:02:25.125Z,1003.93
2017-12-26T01:03:26.899Z,1003.93
2017-12-26T01:04:24.320Z,1003.91
2017-12-26T01:05:23.508Z,1003.89
2017-12-26T01:06:23.263Z,1003.89
2017-12-26T01:07:23.557Z,1003.85
2017-12-26T01:08:24.432Z,1003.82
2017-12-26T01:09:23.416Z,1003.82
2017-12-26T01:10:23.470Z,1003.76
2017-12-26T01:11:23.148Z,1003.72
2017-12-26T01:12:24.067Z,1003.76
2017-12-26T01:13:45.953Z,1003.80
2017-12-26T01:14:47.358Z,1003.77
2017-12-26T01:15:46.959Z,1003.72
2017-12-26T01:16:47.369Z,1003.72
2017-12-26T01:17:46.068Z,1003.64
2017-12-26T01:18:47.345Z,1003.70
2017-12-26T01:19:46.722Z,1003.56
2017-12-26T01:20:46.362Z,1003.53
2017-12-26T01:21:46.768Z,1003.55
2017-12-26T01:22:46.359Z,1003.65
2017-12-26T01:23:46.031Z,1003.66
2017-12-26T01:24:47.490Z,1003.62
2017-12-26T01:25:47.610Z,1003.65
2017-12-26T01:26:46.900Z,1003.60
2017-12-26T01:28:25.199Z,1003.61
2017-12-26T01:29:24.796Z,1003.60
2017-12-26T01:30:25.350Z,1003.59
2017-12-26T01:31:24.958Z,1003.54
2017-12-26T01:32:25.451Z,1003.50
2017-12-26T01:33:25.827Z,1003.53
2017-12-26T01:34:25.394Z,1003.52
2017-12-26T01:35:25.495Z,1003.45
2017-12-26T01:36:25.230Z,1003.49
2017-12-26T01:37:26.271Z,1003.43
2017-12-26T01:38:25.648Z,1003.41
2017-12-26T01:39:25.940Z,1003.36
2017-12-26T01:40:25.330Z,1003.34
2017-12-26T01:41:26.175Z,1003.38
2017-12-26T01:42:25.037Z,1003.37
2017-12-26T01:43:46.836Z,1003.32
2017-12-26T01:44:48.153Z,1002.99
2017-12-26T01:45:47.551Z,1003.36
2017-12-26T01:46:48.318Z,1003.31
2017-12-26T01:47:47.130Z,1003.36
2017-12-26T01:48:47.697Z,1003.37
2017-12-26T01:49:48.002Z,1003.27
2017-12-26T01:51:09.830Z,1003.20
2017-12-26T01:52:12.644Z,1003.15
2017-12-26T01:53:32.367Z,1003.09
2017-12-26T01:54:33.730Z,1003.25
2017-12-26T01:55:33.955Z,1003.09
2017-12-26T01:56:33.169Z,1003.13
2017-12-26T01:57:33.976Z,1003.29
2017-12-26T01:58:33.455Z,1003.20
2017-12-26T01:59:33.686Z,1003.24
2017-12-26T02:00:33.454Z,1003.13
2017-12-26T02:01:33.643Z,1003.12
2017-12-26T02:02:34.456Z,1003.12
2017-12-26T02:03:33.228Z,1003.14
2017-12-26T02:04:32.980Z,1003.22
2017-12-26T02:05:33.281Z,1003.21
2017-12-26T02:06:33.774Z,1003.11
2017-12-26T02:07:33.510Z,1003.06
2017-12-26T02:08:34.326Z,1002.96
2017-12-26T02:09:33.681Z,1002.97
2017-12-26T02:10:33.250Z,1002.89
2017-12-26T02:11:33.042Z,1002.88
2017-12-26T02:12:33.475Z,1002.86
2017-12-26T02:13:33.969Z,1002.80
2017-12-26T02:14:33.388Z,1002.84
2017-12-26T02:15:33.229Z,1002.76
2017-12-26T02:16:33.154Z,1002.74
2017-12-26T02:17:56.055Z,1002.72
2017-12-26T02:18:56.363Z,1002.68
2017-12-26T02:19:55.253Z,1002.69
2017-12-26T02:21:18.634Z,1002.60
2017-12-26T02:22:18.913Z,1002.57
2017-12-26T02:23:19.115Z,1002.57
2017-12-26T02:24:19.611Z,1002.46
2017-12-26T02:25:18.611Z,1002.52
2017-12-26T02:26:18.074Z,1002.42
2017-12-26T02:27:19.374Z,1002.45
2017-12-26T02:28:18.834Z,1002.41
2017-12-26T02:29:19.215Z,1002.39
2017-12-26T02:30:41.674Z,1002.46
2017-12-26T02:31:42.527Z,1002.36
2017-12-26T02:33:04.729Z,1002.30
2017-12-26T02:34:04.269Z,1002.29
2017-12-26T02:35:27.976Z,1002.21
2017-12-26T02:36:28.144Z,1002.19
2017-12-26T02:37:28.052Z,1002.06
2017-12-26T02:38:28.158Z,1002.14
2017-12-26T02:39:28.168Z,1002.15
2017-12-26T02:40:29.765Z,1002.09
2017-12-26T02:41:27.666Z,1002.00
2017-12-26T02:42:49.825Z,1002.07
2017-12-26T02:44:12.754Z,1001.96
2017-12-26T02:45:12.867Z,1001.93
2017-12-26T02:46:13.152Z,1001.95
2017-12-26T02:47:12.931Z,1001.97
2017-12-26T02:48:13.396Z,1001.89
2017-12-26T02:49:13.595Z,1001.92
2017-12-26T02:50:13.523Z,1001.89
2017-12-26T02:51:13.774Z,1001.91
2017-12-26T02:52:13.556Z,1001.87
2017-12-26T02:53:13.563Z,1001.78
2017-12-26T02:54:37.764Z,1001.86
2017-12-26T02:55:39.177Z,1001.91
2017-12-26T02:56:38.907Z,1001.78
2017-12-26T02:57:38.367Z,1001.83
2017-12-26T02:58:38.137Z,1001.66
2017-12-26T02:59:38.477Z,1001.60
2017-12-26T03:00:38.427Z,1001.63
2017-12-26T03:01:39.415Z,1001.65
2017-12-26T03:02:38.648Z,1001.65
2017-12-26T03:03:38.886Z,1001.56
2017-12-26T03:04:38.195Z,1001.56
2017-12-26T03:05:39.269Z,1001.43
2017-12-26T03:06:38.860Z,1001.53
2017-12-26T03:07:39.037Z,1001.50
2017-12-26T03:08:38.276Z,1001.41
2017-12-26T03:09:38.039Z,1001.41
2017-12-26T03:10:37.858Z,1001.31
2017-12-26T03:11:39.552Z,1001.31
2017-12-26T03:12:38.165Z,1001.25
2017-12-26T03:13:38.091Z,1001.21
2017-12-26T03:14:38.254Z,1001.09
2017-12-26T03:15:37.923Z,1001.10
2017-12-26T03:16:37.926Z,1001.08
2017-12-26T03:17:38.839Z,1001.12
2017-12-26T03:18:39.059Z,1001.10
2017-12-26T03:19:38.533Z,1001.03
2017-12-26T03:20:38.998Z,1001.00
2017-12-26T03:21:37.978Z,1000.97
2017-12-26T03:22:38.360Z,1000.96
2017-12-26T03:23:38.677Z,1000.94
2017-12-26T03:24:38.553Z,1000.96
2017-12-26T03:25:38.989Z,1000.84
2017-12-26T03:26:37.848Z,1000.82
2017-12-26T03:27:38.164Z,1000.78
2017-12-26T03:28:38.924Z,1000.82
2017-12-26T03:29:38.279Z,1000.71
2017-12-26T03:30:38.555Z,1000.70
2017-12-26T03:31:38.731Z,1000.71
2017-12-26T03:32:38.960Z,1000.66
2017-12-26T03:33:38.345Z,1000.60
2017-12-26T03:34:38.862Z,1000.64
2017-12-26T03:35:38.408Z,1000.59
2017-12-26T03:36:38.769Z,1000.61
2017-12-26T03:37:38.681Z,1000.57
2017-12-26T03:38:38.957Z,1000.58
2017-12-26T03:39:39.175Z,1000.56
2017-12-26T03:40:37.973Z,1000.52
2017-12-26T03:41:38.409Z,1000.55
2017-12-26T03:42:38.474Z,1000.53
2017-12-26T03:43:38.683Z,1000.46
2017-12-26T03:44:38.808Z,1000.50
2017-12-26T03:45:37.539Z,1000.43
2017-12-26T03:46:38.527Z,1000.50
2017-12-26T03:47:38.517Z,1000.40
2017-12-26T03:48:38.135Z,1000.40
2017-12-26T03:49:38.264Z,1000.33
2017-12-26T03:50:38.269Z,1000.28
2017-12-26T03:51:37.924Z,1000.29
2017-12-26T03:52:37.604Z,1000.27
2017-12-26T03:53:38.478Z,1000.24
2017-12-26T03:54:38.780Z,1000.15
2017-12-26T03:55:39.047Z,1000.10
2017-12-26T03:56:37.937Z,1000.16
2017-12-26T03:57:37.944Z,1000.17
2017-12-26T03:58:38.284Z,1000.07
2017-12-26T03:59:38.329Z,1000.02
2017-12-26T04:00:38.158Z,999.97
2017-12-26T04:01:37.803Z,999.97
2017-12-26T04:02:38.496Z,1000.00
2017-12-26T04:03:38.707Z,999.96
2017-12-26T04:04:39.328Z,999.90
2017-12-26T04:05:38.721Z,999.83
2017-12-26T04:06:39.036Z,999.86
2017-12-26T04:07:38.383Z,999.91
2017-12-26T04:08:38.439Z,999.87
2017-12-26T04:09:38.731Z,999.74
2017-12-26T04:10:38.345Z,999.81
2017-12-26T04:11:37.913Z,999.69
2017-12-26T04:12:59.555Z,999.64
2017-12-26T04:13:59.866Z,999.53
2017-12-26T04:15:00.603Z,999.49
2017-12-26T04:15:59.420Z,999.44
2017-12-26T04:16:59.004Z,999.39
2017-12-26T04:18:00.485Z,999.38
2017-12-26T04:18:59.640Z,999.40
2017-12-26T04:20:00.150Z,999.42
2017-12-26T04:21:00.992Z,999.37
2017-12-26T04:21:59.418Z,999.28
2017-12-26T04:23:21.103Z,999.34
2017-12-26T04:24:22.377Z,999.20
2017-12-26T04:25:22.291Z,999.14
2017-12-26T04:26:22.573Z,999.15
2017-12-26T04:27:21.416Z,999.07
2017-12-26T04:28:22.737Z,999.13
2017-12-26T04:29:22.156Z,999.10
2017-12-26T04:30:22.470Z,999.06
2017-12-26T04:31:21.227Z,999.01
2017-12-26T04:32:22.552Z,999.03
2017-12-26T04:33:22.044Z,999.03
2017-12-26T04:34:22.180Z,999.05
2017-12-26T04:35:22.104Z,998.99
2017-12-26T04:36:22.040Z,998.87
2017-12-26T04:37:22.883Z,998.86
2017-12-26T04:38:22.087Z,998.79
2017-12-26T04:39:21.568Z,998.83
2017-12-26T04:40:21.524Z,998.74
2017-12-26T04:41:21.887Z,998.70
2017-12-26T04:42:21.984Z,998.57
2017-12-26T04:43:22.215Z,998.53
2017-12-26T04:44:22.165Z,998.55
2017-12-26T04:45:21.938Z,998.53
2017-12-26T04:46:22.559Z,998.52
2017-12-26T04:47:22.339Z,998.57
2017-12-26T04:48:22.126Z,998.61
2017-12-26T04:49:22.127Z,998.70
2017-12-26T04:50:21.852Z,998.66
2017-12-26T04:51:22.007Z,998.62
2017-12-26T04:52:21.616Z,998.58
2017-12-26T04:53:21.915Z,998.65
2017-12-26T04:54:22.527Z,998.64
2017-12-26T04:55:21.146Z,998.63
2017-12-26T04:56:22.528Z,998.60
2017-12-26T04:57:22.823Z,998.66
2017-12-26T04:58:43.593Z,998.58
2017-12-26T04:59:43.772Z,998.61
2017-12-26T05:00:44.187Z,998.54
2017-12-26T05:01:44.450Z,998.59
2017-12-26T05:02:44.578Z,998.55
2017-12-26T05:03:43.171Z,998.47
2017-12-26T05:04:43.569Z,998.42
2017-12-26T05:05:43.786Z,998.40
2017-12-26T05:06:44.207Z,998.45
2017-12-26T05:07:43.980Z,998.36
2017-12-26T05:08:43.802Z,998.40
2017-12-26T05:10:05.755Z,998.36
2017-12-26T05:11:06.553Z,998.21
2017-12-26T05:12:27.817Z,998.28
2017-12-26T05:13:28.596Z,998.11
2017-12-26T05:14:28.932Z,998.16
2017-12-26T05:15:29.748Z,998.07
2017-12-26T05:16:29.171Z,998.09
2017-12-26T05:17:29.497Z,997.95
2017-12-26T05:18:28.897Z,998.00
2017-12-26T05:19:29.355Z,997.95
2017-12-26T05:20:28.108Z,997.88
2017-12-26T05:21:29.600Z,997.86
2017-12-26T05:22:28.069Z,997.84
2017-12-26T05:23:28.511Z,997.83
2017-12-26T05:24:28.033Z,997.88
2017-12-26T05:25:28.678Z,997.82
2017-12-26T05:26:50.251Z,997.80
2017-12-26T05:28:12.678Z,997.81
2017-12-26T05:29:12.713Z,997.81
2017-12-26T05:30:13.040Z,997.75
2017-12-26T05:31:13.339Z,997.64
2017-12-26T05:32:13.391Z,997.62
2017-12-26T05:33:12.681Z,997.36
2017-12-26T05:34:12.614Z,997.57
2017-12-26T05:35:12.958Z,997.66
2017-12-26T05:36:13.982Z,997.59
2017-12-26T05:37:13.829Z,997.58
2017-12-26T05:38:12.941Z,997.49
2017-12-26T05:39:12.884Z,997.40
2017-12-26T05:40:12.465Z,997.54
2017-12-26T05:41:12.133Z,997.41
2017-12-26T05:42:13.792Z,997.41
2017-12-26T05:43:13.008Z,997.38
2017-12-26T05:44:12.981Z,997.28
2017-12-26T05:45:13.193Z,997.39
2017-12-26T05:46:34.796Z,997.36
2017-12-26T05:47:36.685Z,997.37
2017-12-26T05:48:35.941Z,997.39
2017-12-26T05:49:35.744Z,997.46
2017-12-26T05:50:35.644Z,997.58
2017-12-26T05:51:35.619Z,997.51
2017-12-26T05:52:35.386Z,997.49
2017-12-26T05:53:35.663Z,997.63
2017-12-26T05:54:35.651Z,997.53
2017-12-26T05:55:35.824Z,997.59
2017-12-26T05:56:35.473Z,997.40
2017-12-26T05:57:34.938Z,997.46
2017-12-26T05:58:36.530Z,997.37
2017-12-26T05:59:35.811Z,997.42
2017-12-26T06:00:35.299Z,997.34
2017-12-26T06:01:34.817Z,997.36
2017-12-26T06:02:35.551Z,997.43
2017-12-26T06:03:35.958Z,997.27
2017-12-26T06:04:57.967Z,997.44
2017-12-26T06:05:59.063Z,997.28
2017-12-26T06:07:00.238Z,997.23
2017-12-26T06:07:59.130Z,997.19
2017-12-26T06:08:58.592Z,997.18
2017-12-26T06:09:59.349Z,997.23
2017-12-26T06:10:59.464Z,997.23
2017-12-26T06:11:58.877Z,997.20
2017-12-26T06:12:58.438Z,997.19
2017-12-26T06:13:58.138Z,997.06
2017-12-26T06:15:00.607Z,997.08
2017-12-26T06:15:58.818Z,997.01
2017-12-26T06:16:59.129Z,996.93
2017-12-26T06:17:59.521Z,997.12
2017-12-26T06:18:58.331Z,997.03
2017-12-26T06:19:59.353Z,996.99
2017-12-26T06:20:58.085Z,996.90
2017-12-26T06:21:58.906Z,996.91
2017-12-26T06:22:59.029Z,996.79
2017-12-26T06:23:59.360Z,996.78
2017-12-26T06:24:59.362Z,996.73
2017-12-26T06:25:58.352Z,996.66
2017-12-26T06:26:58.920Z,996.73
2017-12-26T06:27:58.930Z,996.72
2017-12-26T06:28:59.276Z,996.70
2017-12-26T06:29:59.980Z,996.75
2017-12-26T06:30:59.258Z,996.80
2017-12-26T06:32:21.135Z,996.83
2017-12-26T06:33:20.560Z,996.95
2017-12-26T06:34:21.785Z,996.71
2017-12-26T06:35:22.097Z,996.89
2017-12-26T06:36:20.799Z,996.95
2017-12-26T06:37:21.542Z,996.94
2017-12-26T06:38:21.264Z,996.96
2017-12-26T06:39:21.613Z,996.88
2017-12-26T06:40:22.037Z,996.93
2017-12-26T06:41:21.275Z,996.86
2017-12-26T06:42:21.341Z,996.92
2017-12-26T06:43:21.264Z,996.85
2017-12-26T06:44:20.782Z,996.84
2017-12-26T06:45:22.213Z,996.72
2017-12-26T06:46:20.777Z,996.81
2017-12-26T06:47:21.383Z,996.85
2017-12-26T06:48:20.824Z,996.87
2017-12-26T06:49:22.047Z,996.77
2017-12-26T06:50:21.199Z,996.91
2017-12-26T06:51:21.749Z,996.81
2017-12-26T06:52:22.263Z,996.86
2017-12-26T06:53:21.509Z,996.87
2017-12-26T06:54:21.894Z,996.71
2017-12-26T06:55:21.091Z,996.88
2017-12-26T06:56:21.265Z,996.94
2017-12-26T06:57:21.376Z,996.94
2017-12-26T06:58:21.683Z,996.88
2017-12-26T06:59:21.526Z,996.95
2017-12-26T07:00:21.043Z,996.92
2017-12-26T07:01:20.839Z,996.89
2017-12-26T07:02:20.562Z,996.97
2017-12-26T07:03:21.977Z,996.93
2017-12-26T07:04:22.183Z,996.98
2017-12-26T07:05:21.540Z,997.08
2017-12-26T07:06:21.816Z,997.04
2017-12-26T07:07:20.722Z,997.05
2017-12-26T07:08:21.904Z,997.08
2017-12-26T07:09:21.431Z,997.12
2017-12-26T07:10:20.862Z,997.11
2017-12-26T07:11:21.241Z,997.16
2017-12-26T07:12:20.844Z,997.21
2017-12-26T07:13:20.531Z,997.22
2017-12-26T07:14:21.426Z,997.20
2017-12-26T07:15:21.926Z,997.40
2017-12-26T07:16:21.514Z,997.20
2017-12-26T07:17:21.661Z,997.24
2017-12-26T07:18:21.998Z,997.29
2017-12-26T07:19:21.055Z,997.28
2017-12-26T07:20:21.062Z,997.30
2017-12-26T07:21:20.931Z,997.28
2017-12-26T07:22:22.160Z,997.23
2017-12-26T07:23:20.859Z,997.34
2017-12-26T07:24:21.686Z,997.28
2017-12-26T07:25:21.986Z,997.25
2017-12-26T07:26:20.555Z,997.35
2017-12-26T07:27:21.967Z,997.38
2017-12-26T07:28:42.678Z,997.38
2017-12-26T07:30:05.015Z,997.36
2017-12-26T07:31:26.450Z,997.38
2017-12-26T07:32:27.720Z,997.40
2017-12-26T07:33:27.993Z,997.54
2017-12-26T07:34:26.894Z,997.44
2017-12-26T07:35:26.929Z,997.46
2017-12-26T07:36:27.815Z,997.42
2017-12-26T07:37:27.325Z,997.49
2017-12-26T07:38:27.839Z,997.40
2017-12-26T07:39:26.795Z,997.49
2017-12-26T07:40:27.388Z,997.50
2017-12-26T07:41:27.638Z,997.61
2017-12-26T07:42:27.274Z,997.53
2017-12-26T07:43:27.632Z,997.52
2017-12-26T07:44:27.609Z,997.48
2017-12-26T07:45:28.063Z,997.47
2017-12-26T07:46:27.909Z,997.51
2017-12-26T07:47:48.964Z,997.49
2017-12-26T07:48:48.677Z,997.48
2017-12-26T07:49:50.386Z,997.47
2017-12-26T07:50:49.530Z,997.55
2017-12-26T07:52:11.720Z,997.60
2017-12-26T07:53:11.976Z,997.55
2017-12-26T07:54:12.387Z,997.56
2017-12-26T07:55:11.825Z,997.51
2017-12-26T07:56:11.659Z,997.71
2017-12-26T07:57:12.030Z,997.53
2017-12-26T07:58:11.708Z,997.60
2017-12-26T07:59:33.757Z,997.62
2017-12-26T08:00:34.951Z,997.68
2017-12-26T08:01:33.516Z,997.67
2017-12-26T08:02:35.248Z,997.57
2017-12-26T08:03:34.647Z,997.63
2017-12-26T08:04:34.439Z,997.56
2017-12-26T08:05:35.323Z,997.63
2017-12-26T08:06:34.357Z,997.58
2017-12-26T08:07:56.349Z,997.55
2017-12-26T08:08:56.671Z,997.60
2017-12-26T08:09:57.068Z,997.53
2017-12-26T08:10:57.398Z,997.53
2017-12-26T08:11:56.745Z,997.58
2017-12-26T08:12:57.523Z,997.56
2017-12-26T08:13:56.954Z,997.59
2017-12-26T08:14:57.045Z,997.53
2017-12-26T08:15:57.936Z,997.52
2017-12-26T08:16:57.132Z,997.51
2017-12-26T08:17:56.603Z,997.52
2017-12-26T08:18:57.112Z,997.59
2017-12-26T08:19:56.502Z,997.59
2017-12-26T08:20:56.758Z,997.47
2017-12-26T08:21:56.682Z,997.39
2017-12-26T08:22:56.651Z,997.55
2017-12-26T08:23:57.272Z,997.51
2017-12-26T08:24:56.681Z,997.43
2017-12-26T08:25:57.347Z,997.47
2017-12-26T08:26:56.741Z,997.52
2017-12-26T08:27:56.447Z,997.50
2017-12-26T08:29:19.248Z,997.49
2017-12-26T08:30:41.508Z,997.52
2017-12-26T08:31:42.097Z,997.59
2017-12-26T08:32:41.401Z,997.63
2017-12-26T08:33:41.443Z,997.70
2017-12-26T08:34:42.522Z,997.72
2017-12-26T08:35:41.071Z,997.78
2017-12-26T08:36:41.068Z,997.71
2017-12-26T08:37:40.620Z,997.78
2017-12-26T08:38:41.847Z,997.72
2017-12-26T08:39:42.593Z,997.75
2017-12-26T08:40:41.538Z,997.84
2017-12-26T08:41:42.390Z,997.88
2017-12-26T08:42:41.722Z,997.95
2017-12-26T08:44:25.352Z,997.90
2017-12-26T08:45:27.084Z,997.99
2017-12-26T08:46:26.606Z,997.90
2017-12-26T08:47:25.494Z,997.97
2017-12-26T08:48:25.454Z,998.00
2017-12-26T08:49:26.646Z,998.10
2017-12-26T08:50:25.997Z,998.14
2017-12-26T08:51:26.323Z,998.13
2017-12-26T08:52:47.573Z,998.22
2017-12-26T08:53:48.082Z,998.17
2017-12-26T08:54:48.115Z,998.25
2017-12-26T08:55:48.410Z,998.28
2017-12-26T08:56:48.609Z,998.33
2017-12-26T08:57:47.650Z,998.34
2017-12-26T08:58:48.013Z,998.32
2017-12-26T08:59:47.604Z,998.34
2017-12-26T09:00:47.954Z,998.37
2017-12-26T09:01:48.440Z,998.35
2017-12-26T09:02:48.006Z,998.34
2017-12-26T09:03:47.696Z,998.46
2017-12-26T09:05:10.188Z,998.30
2017-12-26T09:06:10.559Z,998.42
2017-12-26T09:07:33.104Z,998.46
2017-12-26T09:08:33.975Z,998.41
2017-12-26T09:09:33.089Z,998.40
2017-12-26T09:10:33.435Z,998.42
2017-12-26T09:11:33.772Z,998.42
2017-12-26T09:12:32.893Z,998.39
2017-12-26T09:13:32.555Z,998.31
2017-12-26T09:14:34.476Z,998.34
2017-12-26T09:15:33.840Z,998.38
2017-12-26T09:16:33.206Z,998.58
2017-12-26T09:17:33.287Z,998.38
2017-12-26T09:18:33.726Z,998.42
2017-12-26T09:19:32.653Z,998.34
2017-12-26T09:20:33.996Z,998.40
2017-12-26T09:21:33.063Z,998.36
2017-12-26T09:22:33.585Z,998.32
2017-12-26T09:23:34.591Z,998.39
2017-12-26T09:24:33.884Z,998.43
2017-12-26T09:25:33.462Z,998.40
2017-12-26T09:26:34.226Z,998.34
2017-12-26T09:27:33.336Z,998.35
2017-12-26T09:28:33.414Z,998.35
2017-12-26T09:29:33.975Z,998.31
2017-12-26T09:30:33.242Z,998.23
2017-12-26T09:31:33.889Z,998.25
2017-12-26T09:32:32.969Z,998.16
2017-12-26T09:33:32.983Z,998.16
2017-12-26T09:34:33.450Z,998.23
2017-12-26T09:35:33.705Z,998.24
2017-12-26T09:36:33.263Z,998.29
2017-12-26T09:37:34.019Z,998.38
2017-12-26T09:38:33.667Z,998.41
2017-12-26T09:39:34.037Z,998.43
2017-12-26T09:40:33.113Z,998.47
2017-12-26T09:41:33.655Z,998.44
2017-12-26T09:42:32.775Z,998.44
2017-12-26T09:43:33.633Z,998.45
2017-12-26T09:44:33.906Z,998.49
2017-12-26T09:45:33.407Z,998.54
2017-12-26T09:46:33.757Z,998.43
2017-12-26T09:47:34.097Z,998.48
2017-12-26T09:48:33.521Z,998.53
2017-12-26T09:49:34.383Z,998.47
2017-12-26T09:50:33.942Z,998.40
2017-12-26T09:51:33.447Z,998.44
2017-12-26T09:52:34.004Z,998.45
2017-12-26T09:53:33.803Z,998.54
2017-12-26T09:54:33.266Z,998.53
2017-12-26T09:55:34.717Z,998.53
2017-12-26T09:56:33.237Z,998.61
2017-12-26T09:57:33.800Z,998.56
2017-12-26T09:58:33.597Z,998.62
2017-12-26T09:59:34.157Z,998.64
2017-12-26T10:00:34.135Z,998.67
2017-12-26T10:01:33.640Z,998.64
2017-12-26T10:02:33.110Z,998.61
2017-12-26T10:03:33.286Z,998.59
2017-12-26T10:04:33.389Z,998.54
2017-12-26T10:05:33.496Z,998.52
2017-12-26T10:06:33.958Z,998.59
2017-12-26T10:07:33.443Z,998.49
2017-12-26T10:08:33.972Z,998.64
2017-12-26T10:09:33.464Z,998.58
2017-12-26T10:10:33.642Z,998.50
2017-12-26T10:11:32.953Z,998.47
2017-12-26T10:12:33.162Z,998.44
2017-12-26T10:13:34.072Z,998.51
2017-12-26T10:14:33.583Z,998.50
2017-12-26T10:15:34.396Z,998.57
2017-12-26T10:16:33.770Z,998.58
2017-12-26T10:17:33.031Z,998.56
2017-12-26T10:18:33.470Z,998.48
2017-12-26T10:20:18.723Z,998.45
2017-12-26T10:21:18.298Z,998.33
2017-12-26T10:22:18.779Z,998.47
2017-12-26T10:23:18.329Z,998.44
2017-12-26T10:24:18.118Z,998.52
2017-12-26T10:25:18.464Z,998.46
2017-12-26T10:26:19.509Z,998.45
2017-12-26T10:27:18.884Z,998.45
2017-12-26T10:28:18.602Z,998.43
2017-12-26T10:29:18.177Z,998.51
2017-12-26T10:30:19.365Z,998.42
2017-12-26T10:31:19.049Z,998.45
2017-12-26T10:32:18.511Z,998.35
2017-12-26T10:33:19.313Z,998.44
2017-12-26T10:35:03.592Z,998.34
2017-12-26T10:36:04.076Z,998.37
2017-12-26T10:37:27.914Z,998.38
2017-12-26T10:38:27.607Z,998.41
2017-12-26T10:39:28.053Z,998.48
2017-12-26T10:40:28.450Z,998.45
2017-12-26T10:41:28.377Z,998.39
2017-12-26T10:42:28.548Z,998.42
2017-12-26T10:43:27.860Z,998.42
2017-12-26T10:44:28.127Z,998.46
2017-12-26T10:45:50.817Z,998.41
2017-12-26T10:46:50.080Z,998.52
2017-12-26T10:47:50.859Z,998.51
2017-12-26T10:48:50.406Z,998.43
2017-12-26T10:49:49.778Z,998.38
2017-12-26T10:50:50.484Z,998.43
2017-12-26T10:51:51.141Z,998.45
2017-12-26T10:52:50.662Z,998.60
2017-12-26T10:53:51.103Z,998.39
2017-12-26T10:54:50.561Z,998.54
2017-12-26T10:55:50.405Z,998.50
2017-12-26T10:56:52.156Z,998.52
2017-12-26T10:57:51.157Z,998.48
2017-12-26T10:58:51.140Z,998.51
2017-12-26T10:59:49.707Z,998.52
2017-12-26T11:00:50.479Z,998.53
2017-12-26T11:01:50.035Z,998.43
2017-12-26T11:02:50.457Z,998.57
2017-12-26T11:03:50.094Z,998.53
2017-12-26T11:04:51.080Z,998.56
2017-12-26T11:05:50.611Z,998.51
2017-12-26T11:06:50.092Z,998.56
2017-12-26T11:07:50.567Z,998.59
2017-12-26T11:08:50.005Z,998.52
2017-12-26T11:09:50.794Z,998.57
2017-12-26T11:10:50.690Z,998.57
2017-12-26T11:11:50.327Z,998.59
2017-12-26T11:12:50.097Z,998.49
2017-12-26T11:13:50.722Z,998.49
2017-12-26T11:14:51.014Z,998.47
2017-12-26T11:15:50.832Z,998.47
2017-12-26T11:16:52.167Z,998.56
2017-12-26T11:17:51.951Z,998.42
2017-12-26T11:18:51.001Z,998.43
2017-12-26T11:19:50.704Z,998.46
2017-12-26T11:20:50.935Z,998.50
2017-12-26T11:21:50.470Z,998.49
2017-12-26T11:22:50.569Z,998.46
2017-12-26T11:23:50.085Z,998.42
2017-12-26T11:24:50.720Z,998.39
2017-12-26T11:25:50.193Z,998.51
2017-12-26T11:26:49.868Z,998.45
2017-12-26T11:27:50.755Z,998.38
2017-12-26T11:28:50.330Z,998.39
2017-12-26T11:29:50.033Z,998.49
2017-12-26T11:30:49.685Z,998.47
2017-12-26T11:31:50.134Z,998.50
2017-12-26T11:32:50.016Z,998.54
2017-12-26T11:33:51.570Z,998.52
2017-12-26T11:34:50.254Z,998.56
2017-12-26T11:35:50.332Z,998.57
2017-12-26T11:36:49.792Z,998.56
2017-12-26T11:37:50.938Z,998.61
2017-12-26T11:38:50.660Z,998.51
2017-12-26T11:40:37.994Z,998.59
2017-12-26T11:41:38.730Z,998.42
2017-12-26T11:42:39.189Z,998.59
2017-12-26T11:43:38.568Z,998.62
2017-12-26T11:44:38.137Z,998.63
2017-12-26T11:45:39.184Z,998.62
2017-12-26T11:46:38.892Z,998.67
2017-12-26T11:47:39.055Z,998.54
2017-12-26T11:48:38.832Z,998.57
2017-12-26T11:49:39.065Z,998.55
2017-12-26T11:51:02.609Z,998.51
2017-12-26T11:52:03.912Z,998.53
2017-12-26T11:53:03.081Z,998.48
2017-12-26T11:54:02.992Z,998.47
2017-12-26T11:55:03.044Z,998.55
2017-12-26T11:56:01.953Z,998.49
2017-12-26T11:57:02.041Z,998.54
2017-12-26T11:58:01.607Z,998.45
2017-12-26T11:59:01.975Z,998.43
2017-12-26T12:00:02.248Z,998.50
2017-12-26T12:01:02.536Z,998.52
2017-12-26T12:02:02.176Z,998.42
2017-12-26T12:03:01.632Z,998.48
2017-12-26T12:04:02.282Z,998.42
2017-12-26T12:05:01.947Z,998.55
2017-12-26T12:06:24.748Z,998.52
2017-12-26T12:07:25.245Z,998.48
2017-12-26T12:08:25.679Z,998.48
2017-12-26T12:09:25.084Z,998.50
2017-12-26T12:10:24.665Z,998.53
2017-12-26T12:11:26.595Z,998.51
2017-12-26T12:12:25.359Z,998.59
2017-12-26T12:13:25.413Z,998.60
2017-12-26T12:14:25.138Z,998.60
2017-12-26T12:15:26.112Z,998.64
2017-12-26T12:16:25.572Z,998.55
2017-12-26T12:17:26.747Z,998.66
2017-12-26T12:18:25.426Z,998.64
2017-12-26T12:19:25.030Z,998.55
2017-12-26T12:20:24.746Z,998.63
2017-12-26T12:21:25.502Z,998.53
2017-12-26T12:22:25.362Z,998.53
2017-12-26T12:23:25.388Z,998.55
2017-12-26T12:24:24.749Z,998.42
2017-12-26T12:25:25.563Z,998.61
2017-12-26T12:26:25.999Z,998.45
2017-12-26T12:27:24.902Z,998.57
2017-12-26T12:28:24.691Z,998.59
2017-12-26T12:29:25.751Z,998.43
2017-12-26T12:30:26.398Z,998.63
2017-12-26T12:31:24.988Z,998.60
2017-12-26T12:32:48.125Z,998.62
2017-12-26T12:33:47.889Z,998.65
2017-12-26T12:34:48.882Z,998.67
2017-12-26T12:36:11.737Z,998.63
2017-12-26T12:37:36.042Z,998.55
2017-12-26T12:38:35.610Z,998.66
2017-12-26T12:39:35.224Z,998.60
2017-12-26T12:40:36.063Z,998.49
2017-12-26T12:41:34.396Z,998.52